createdAt,value
2023-01-28T00:00:37.769Z,2.84
2023-01-28T00:03:04.258Z,2.95
2023-01-28T00:05:30.551Z,2.73
2023-01-28T00:07:56.953Z,2.63
2023-01-28T00:10:23.385Z,2.58
2023-01-28T00:12:49.740Z,2.43
2023-01-28T00:15:16.609Z,2.65
2023-01-28T00:17:42.917Z,2.59
2023-01-28T00:20:10.341Z,2.83
2023-01-28T00:22:36.652Z,2.77
2023-01-28T00:25:03.216Z,2.73
2023-01-28T00:27:29.647Z,2.68
2023-01-28T00:29:56.023Z,2.56
2023-01-28T00:32:22.697Z,2.66
2023-01-28T00:34:49.022Z,2.48
2023-01-28T00:37:15.499Z,2.52
2023-01-28T00:39:42.269Z,2.45
2023-01-28T00:42:08.570Z,2.46
2023-01-28T00:44:35.081Z,2.67
2023-01-28T00:47:01.575Z,2.60
2023-01-28T00:49:27.904Z,2.45
2023-01-28T00:51:54.207Z,2.77
2023-01-28T00:54:20.759Z,2.62
2023-01-28T00:56:47.285Z,2.55
2023-01-28T00:59:13.614Z,2.37
2023-01-28T01:01:40.350Z,2.25
2023-01-28T01:04:06.684Z,2.32
2023-01-28T01:06:36.166Z,2.48
2023-01-28T01:09:07.431Z,2.59
2023-01-28T01:11:35.066Z,2.72
2023-01-28T01:14:03.164Z,2.51
2023-01-28T01:16:31.199Z,2.55
2023-01-28T01:18:58.261Z,2.61
2023-01-28T01:21:27.038Z,2.48
2023-01-28T01:23:53.743Z,2.37
2023-01-28T01:26:20.145Z,2.47
2023-01-28T01:28:46.652Z,2.37
2023-01-28T01:31:17.038Z,2.45
2023-01-28T01:33:45.963Z,2.42
2023-01-28T01:36:14.501Z,2.36
2023-01-28T01:38:41.197Z,2.46
2023-01-28T01:41:08.318Z,2.50
2023-01-28T01:44:03.773Z,2.53
2023-01-28T01:46:41.728Z,2.51
2023-01-28T01:49:18.998Z,2.47
2023-01-28T01:51:48.729Z,2.37
2023-01-28T01:54:16.484Z,2.46
2023-01-28T01:56:47.198Z,2.41
2023-01-28T01:59:17.502Z,2.48
2023-01-28T02:01:45.010Z,2.56
2023-01-28T02:04:29.472Z,2.53
2023-01-28T02:06:58.657Z,2.42
2023-01-28T02:09:36.288Z,2.37
2023-01-28T02:12:10.337Z,2.46
2023-01-28T02:14:41.930Z,2.56
2023-01-28T02:17:09.082Z,2.40
2023-01-28T02:19:50.242Z,2.51
2023-01-28T02:23:00.034Z,2.47
2023-01-28T02:25:41.460Z,2.42
2023-01-28T02:28:17.274Z,2.43
2023-01-28T02:30:52.540Z,2.44
2023-01-28T02:33:28.587Z,2.46
2023-01-28T02:35:55.967Z,2.34
2023-01-28T02:38:36.484Z,2.36
2023-01-28T02:41:11.062Z,2.42
2023-01-28T02:43:40.621Z,2.29
2023-01-28T02:46:33.201Z,2.31
2023-01-28T02:48:59.899Z,2.31
2023-01-28T02:51:40.719Z,2.41
2023-01-28T02:54:20.113Z,2.38
2023-01-28T02:56:59.174Z,2.41
2023-01-28T02:59:35.156Z,2.40
2023-01-28T03:02:09.723Z,2.37
2023-01-28T03:04:43.742Z,2.37
2023-01-28T03:07:12.394Z,2.29
2023-01-28T03:09:42.166Z,2.28
2023-01-28T03:12:18.737Z,2.31
2023-01-28T03:14:50.804Z,2.31
2023-01-28T03:17:26.652Z,2.32
2023-01-28T03:19:54.198Z,2.22
2023-01-28T03:22:21.243Z,2.26
2023-01-28T03:24:51.413Z,2.19
2023-01-28T03:27:35.916Z,2.41
2023-01-28T03:30:27.479Z,2.23
2023-01-28T03:32:55.486Z,2.28
2023-01-28T03:35:24.707Z,2.31
2023-01-28T03:37:51.918Z,2.21
2023-01-28T03:40:18.532Z,2.28
2023-01-28T03:42:44.854Z,2.25
2023-01-28T03:45:11.499Z,2.28
2023-01-28T03:47:37.860Z,2.13
2023-01-28T03:50:04.536Z,2.13
2023-01-28T03:52:32.943Z,2.23
2023-01-28T03:54:59.649Z,2.18
2023-01-28T03:57:27.675Z,2.26
2023-01-28T03:59:54.748Z,2.12
2023-01-28T04:02:23.093Z,2.09
2023-01-28T04:04:49.657Z,2.17
2023-01-28T04:07:16.755Z,2.20
2023-01-28T04:09:44.633Z,2.14
2023-01-28T04:12:11.444Z,2.25
2023-01-28T04:14:37.840Z,2.22
2023-01-28T04:17:04.274Z,2.24
2023-01-28T04:19:30.591Z,2.18
2023-01-28T04:21:56.980Z,2.17
2023-01-28T04:24:23.944Z,2.05
2023-01-28T04:26:50.639Z,2.12
2023-01-28T04:29:17.033Z,2.19
2023-01-28T04:31:43.382Z,2.12
2023-01-28T04:34:09.800Z,2.14
2023-01-28T04:36:36.168Z,2.17
2023-01-28T04:39:03.154Z,2.11
2023-01-28T04:41:29.590Z,2.08
2023-01-28T04:43:55.935Z,2.10
2023-01-28T04:46:22.448Z,2.13
2023-01-28T04:48:49.153Z,2.08
2023-01-28T04:51:15.484Z,2.09
2023-01-28T04:53:41.898Z,2.11
2023-01-28T04:56:08.309Z,2.07
2023-01-28T04:58:34.721Z,2.09
2023-01-28T05:01:01.277Z,2.07
2023-01-28T05:03:27.787Z,2.01
2023-01-28T05:05:54.221Z,2.05
2023-01-28T05:08:20.754Z,2.11
2023-01-28T05:10:47.067Z,2.02
2023-01-28T05:13:13.709Z,2.07
2023-01-28T05:15:40.100Z,2.19
2023-01-28T05:18:06.531Z,2.11
2023-01-28T05:20:33.213Z,2.15
2023-01-28T05:22:59.599Z,2.09
2023-01-28T05:25:26.068Z,2.05
2023-01-28T05:27:52.717Z,2.08
2023-01-28T05:30:20.322Z,2.12
2023-01-28T05:32:47.036Z,2.02
2023-01-28T05:35:14.113Z,2.09
2023-01-28T05:37:40.707Z,1.96
2023-01-28T05:40:07.749Z,2.02
2023-01-28T05:42:34.392Z,2.04
2023-01-28T05:45:00.700Z,2.19
2023-01-28T05:47:26.999Z,2.19
2023-01-28T05:49:53.707Z,2.00
2023-01-28T05:52:20.156Z,2.04
2023-01-28T05:54:46.790Z,2.13
2023-01-28T05:57:13.219Z,2.02
2023-01-28T05:59:39.638Z,1.94
2023-01-28T06:02:06.023Z,2.06
2023-01-28T06:04:32.555Z,1.92
2023-01-28T06:06:58.973Z,2.06
2023-01-28T06:09:25.292Z,1.92
2023-01-28T06:11:51.700Z,1.93
2023-01-28T06:14:18.015Z,1.86
2023-01-28T06:16:44.421Z,1.99
2023-01-28T06:19:10.883Z,2.03
2023-01-28T06:21:37.289Z,1.96
2023-01-28T06:24:03.799Z,1.91
2023-01-28T06:26:30.305Z,2.02
2023-01-28T06:28:56.624Z,2.07
2023-01-28T06:31:23.361Z,1.95
2023-01-28T06:33:49.671Z,1.80
2023-01-28T06:36:16.014Z,1.91
2023-01-28T06:38:42.514Z,1.98
2023-01-28T06:41:08.818Z,1.99
2023-01-28T06:43:35.170Z,1.83
2023-01-28T06:46:01.624Z,1.87
2023-01-28T06:48:28.428Z,1.92
2023-01-28T06:50:54.929Z,1.89
2023-01-28T06:53:21.866Z,1.96
2023-01-28T06:55:48.251Z,1.88
2023-01-28T06:58:14.673Z,1.91
2023-01-28T07:00:41.109Z,1.83
2023-01-28T07:03:07.831Z,1.78
2023-01-28T07:05:34.341Z,1.69
2023-01-28T07:08:01.108Z,2.03
2023-01-28T07:10:27.732Z,1.99
2023-01-28T07:12:54.105Z,1.82
2023-01-28T07:15:20.626Z,1.71
2023-01-28T07:17:47.355Z,1.71
2023-01-28T07:20:16.323Z,1.87
2023-01-28T07:22:44.073Z,1.85
2023-01-28T07:25:12.113Z,1.80
2023-01-28T07:27:38.423Z,1.79
2023-01-28T07:30:05.759Z,1.72
2023-01-28T07:32:32.097Z,1.69
2023-01-28T07:34:58.657Z,1.63
2023-01-28T07:37:25.059Z,1.66
2023-01-28T07:39:51.392Z,1.73
2023-01-28T07:42:18.101Z,1.84
2023-01-28T07:44:44.791Z,1.74
2023-01-28T07:47:11.312Z,1.67
2023-01-28T07:49:37.858Z,1.88
2023-01-28T07:52:04.398Z,1.80
2023-01-28T07:54:30.835Z,1.86
2023-01-28T07:56:57.147Z,1.80
2023-01-28T07:59:23.581Z,1.70
2023-01-28T08:01:49.891Z,1.73
2023-01-28T08:04:16.368Z,1.70
2023-01-28T08:06:42.847Z,1.70
2023-01-28T08:09:09.173Z,1.60
2023-01-28T08:11:38.797Z,1.86
2023-01-28T08:14:05.956Z,1.95
2023-01-28T08:16:32.326Z,1.88
2023-01-28T08:18:59.019Z,2.07
2023-01-28T08:21:25.517Z,1.81
2023-01-28T08:23:51.971Z,1.80
2023-01-28T08:26:18.378Z,1.87
2023-01-28T08:28:44.781Z,1.76
2023-01-28T08:31:11.198Z,1.85
2023-01-28T08:33:37.821Z,2.00
2023-01-28T08:36:05.306Z,2.26
2023-01-28T08:38:31.791Z,2.28
2023-01-28T08:40:58.183Z,2.15
2023-01-28T08:43:24.587Z,2.07
2023-01-28T08:45:54.087Z,2.06
2023-01-28T08:48:20.680Z,2.21
2023-01-28T08:50:47.312Z,2.31
2023-01-28T08:53:19.344Z,2.14
2023-01-28T08:55:46.835Z,2.12
2023-01-28T08:58:16.441Z,2.17
2023-01-28T09:00:43.937Z,2.21
2023-01-28T09:03:10.800Z,2.18
2023-01-28T09:05:37.637Z,2.10
2023-01-28T09:08:06.029Z,2.26
2023-01-28T09:10:32.507Z,2.26
2023-01-28T09:12:58.878Z,2.31
2023-01-28T09:15:25.553Z,2.33
2023-01-28T09:17:57.583Z,2.25
2023-01-28T09:20:24.009Z,2.47
2023-01-28T09:22:50.602Z,2.38
2023-01-28T09:25:16.941Z,2.23
2023-01-28T09:27:43.487Z,2.37
2023-01-28T09:30:11.095Z,2.21
2023-01-28T09:32:37.434Z,2.38
2023-01-28T09:35:04.050Z,2.40
2023-01-28T09:37:30.395Z,2.37
2023-01-28T09:39:56.813Z,2.51
2023-01-28T09:42:52.112Z,2.54
2023-01-28T09:45:28.462Z,2.72
2023-01-28T09:47:58.825Z,2.64
2023-01-28T09:50:33.824Z,2.83
2023-01-28T09:53:10.652Z,2.74
2023-01-28T09:55:44.453Z,2.69
2023-01-28T09:58:12.853Z,2.82
2023-01-28T10:00:50.358Z,2.71
2023-01-28T10:03:41.768Z,2.72
2023-01-28T10:06:19.669Z,2.75
2023-01-28T10:09:23.320Z,2.50
2023-01-28T10:11:58.869Z,2.51
2023-01-28T10:14:50.649Z,2.43
2023-01-28T10:17:31.814Z,2.56
2023-01-28T10:20:29.939Z,2.56
2023-01-28T10:23:02.623Z,2.57
2023-01-28T10:25:31.410Z,2.53
2023-01-28T10:27:58.726Z,2.70
2023-01-28T10:30:27.580Z,3.31
2023-01-28T10:33:18.482Z,2.94
2023-01-28T10:35:44.905Z,2.73
2023-01-28T10:38:15.901Z,2.62
2023-01-28T10:40:43.312Z,2.80
2023-01-28T10:43:10.444Z,2.84
2023-01-28T10:45:46.421Z,3.01
2023-01-28T10:48:23.172Z,2.74
2023-01-28T10:50:55.186Z,2.53
2023-01-28T10:53:34.771Z,2.48
2023-01-28T10:56:04.151Z,2.48
2023-01-28T10:58:34.436Z,2.40
2023-01-28T11:01:05.069Z,2.47
2023-01-28T11:03:31.577Z,2.39
2023-01-28T11:05:59.197Z,2.59
2023-01-28T11:08:27.536Z,2.78
2023-01-28T11:10:55.439Z,2.82
2023-01-28T11:13:23.292Z,2.61
2023-01-28T11:15:56.592Z,2.54
2023-01-28T11:18:53.914Z,2.59
2023-01-28T11:21:26.685Z,2.49
2023-01-28T11:23:53.072Z,2.48
2023-01-28T11:26:26.119Z,2.67
2023-01-28T11:28:53.406Z,2.46
2023-01-28T11:31:22.857Z,3.29
2023-01-28T11:33:58.391Z,2.88
2023-01-28T11:36:30.221Z,2.62
2023-01-28T11:39:03.879Z,2.42
2023-01-28T11:41:38.625Z,2.37
2023-01-28T11:44:24.700Z,2.44
2023-01-28T11:47:14.288Z,2.38
2023-01-28T11:49:54.524Z,2.42
2023-01-28T11:53:06.942Z,2.59
2023-01-28T11:55:52.236Z,2.80
2023-01-28T11:58:37.097Z,2.67
2023-01-28T12:01:13.085Z,2.58
2023-01-28T12:04:00.547Z,2.54
2023-01-28T12:07:06.146Z,2.58
2023-01-28T12:09:41.632Z,2.45
2023-01-28T12:12:39.027Z,2.59
2023-01-28T12:15:27.216Z,2.70
2023-01-28T12:18:00.042Z,2.65
2023-01-28T12:20:48.873Z,2.48
2023-01-28T12:23:36.046Z,2.47
2023-01-28T12:26:30.278Z,2.39
2023-01-28T12:29:25.988Z,2.71
2023-01-28T12:32:14.096Z,2.72
2023-01-28T12:35:17.740Z,2.61
2023-01-28T12:38:08.988Z,2.61
2023-01-28T12:40:54.220Z,2.60
2023-01-28T12:43:39.559Z,2.54
2023-01-28T12:46:16.674Z,2.37
2023-01-28T12:48:50.530Z,2.41
2023-01-28T12:51:23.953Z,2.57
2023-01-28T12:54:08.999Z,2.72
2023-01-28T12:56:43.607Z,2.55
2023-01-28T12:59:16.634Z,2.45
2023-01-28T13:02:06.412Z,2.72
2023-01-28T13:04:51.759Z,2.61
2023-01-28T13:07:32.731Z,2.30
2023-01-28T13:10:04.369Z,2.30
2023-01-28T13:12:32.657Z,2.26
2023-01-28T13:15:00.616Z,1.99
2023-01-28T13:17:32.270Z,2.20
2023-01-28T13:20:00.062Z,2.28
2023-01-28T13:22:33.348Z,2.28
2023-01-28T13:25:19.003Z,2.23
2023-01-28T13:27:58.671Z,2.55
2023-01-28T13:30:31.151Z,2.44
2023-01-28T13:33:06.951Z,2.27
2023-01-28T13:35:39.685Z,2.19
2023-01-28T13:38:17.148Z,2.27
2023-01-28T13:40:53.620Z,2.38
2023-01-28T13:43:36.944Z,2.33
2023-01-28T13:46:13.212Z,2.33
2023-01-28T13:48:51.865Z,2.34
2023-01-28T13:51:32.572Z,2.55
2023-01-28T13:54:04.148Z,2.58
2023-01-28T13:56:41.201Z,2.50
2023-01-28T13:59:45.311Z,2.30
2023-01-28T14:02:48.775Z,2.44
2023-01-28T14:05:33.389Z,2.47
2023-01-28T14:08:43.561Z,2.47
2023-01-28T14:11:24.051Z,2.24
2023-01-28T14:14:28.107Z,2.27
2023-01-28T14:17:10.341Z,2.22
2023-01-28T14:19:38.702Z,2.17
2023-01-28T14:22:09.766Z,2.17
2023-01-28T14:24:40.462Z,2.19
2023-01-28T14:27:17.540Z,2.14
2023-01-28T14:30:04.174Z,2.19
2023-01-28T14:32:33.259Z,2.21
2023-01-28T14:35:08.864Z,2.12
2023-01-28T14:37:35.691Z,2.40
2023-01-28T14:40:14.556Z,2.52
2023-01-28T14:42:45.195Z,2.37
2023-01-28T14:45:49.198Z,2.70
2023-01-28T14:48:31.836Z,2.24
2023-01-28T14:51:09.540Z,2.19
2023-01-28T14:53:54.884Z,2.16
2023-01-28T14:56:48.401Z,2.04
2023-01-28T14:59:20.636Z,2.06
2023-01-28T15:01:49.345Z,2.40
2023-01-28T15:04:27.949Z,2.38
2023-01-28T15:06:54.695Z,2.14
2023-01-28T15:09:21.913Z,2.00
2023-01-28T15:11:52.983Z,2.08
2023-01-28T15:14:30.227Z,1.96
2023-01-28T15:16:57.214Z,1.71
2023-01-28T15:19:34.338Z,1.60
2023-01-28T15:22:03.610Z,1.66
2023-01-28T15:24:31.955Z,1.68
2023-01-28T15:26:58.348Z,1.63
2023-01-28T15:29:30.551Z,1.67
2023-01-28T15:31:57.849Z,2.00
2023-01-28T15:34:24.231Z,1.81
2023-01-28T15:36:50.658Z,1.81
2023-01-28T15:39:22.140Z,1.82
2023-01-28T15:42:01.989Z,1.85
2023-01-28T15:44:44.528Z,1.67
2023-01-28T15:47:23.007Z,1.64
2023-01-28T15:49:54.158Z,1.57
2023-01-28T15:52:33.683Z,1.56
2023-01-28T15:55:00.253Z,1.46
2023-01-28T15:57:32.037Z,1.52
2023-01-28T16:00:04.780Z,1.51
2023-01-28T16:02:31.962Z,1.45
2023-01-28T16:05:00.221Z,1.53
2023-01-28T16:07:28.949Z,1.43
2023-01-28T16:09:57.475Z,1.53
2023-01-28T16:12:25.299Z,1.46
2023-01-28T16:14:58.950Z,2.09
2023-01-28T16:17:29.512Z,1.91
2023-01-28T16:19:59.835Z,1.69
2023-01-28T16:22:34.195Z,1.50
2023-01-28T16:25:01.157Z,1.36
2023-01-28T16:27:29.496Z,1.34
2023-01-28T16:29:55.797Z,1.30
2023-01-28T16:32:37.264Z,1.33
2023-01-28T16:35:11.996Z,1.38
2023-01-28T16:37:40.611Z,1.20
2023-01-28T16:40:09.870Z,1.31
2023-01-28T16:42:36.596Z,1.26
2023-01-28T16:45:03.370Z,1.25
2023-01-28T16:47:29.827Z,1.19
2023-01-28T16:49:56.234Z,1.26
2023-01-28T16:52:22.584Z,1.18
2023-01-28T16:54:49.149Z,1.18
2023-01-28T16:57:18.908Z,1.10
2023-01-28T16:59:45.412Z,1.17
2023-01-28T17:02:13.007Z,1.07
2023-01-28T17:04:39.582Z,1.35
2023-01-28T17:07:05.911Z,1.30
2023-01-28T17:09:32.607Z,1.26
2023-01-28T17:11:58.996Z,1.21
2023-01-28T17:14:25.512Z,1.12
2023-01-28T17:16:51.824Z,1.14
2023-01-28T17:19:21.317Z,0.97
2023-01-28T17:21:47.629Z,1.01
2023-01-28T17:24:14.261Z,1.09
2023-01-28T17:26:40.685Z,0.96
2023-01-28T17:29:08.204Z,1.01
2023-01-28T17:31:35.945Z,1.06
2023-01-28T17:34:03.743Z,0.94
2023-01-28T17:36:30.167Z,0.99
2023-01-28T17:38:56.472Z,1.01
2023-01-28T17:41:22.783Z,0.95
2023-01-28T17:43:54.244Z,0.99
2023-01-28T17:46:22.911Z,1.06
2023-01-28T17:48:49.738Z,1.00
2023-01-28T17:51:16.865Z,0.94
2023-01-28T17:53:47.914Z,1.17
2023-01-28T17:56:19.303Z,1.14
2023-01-28T17:58:53.929Z,1.12
2023-01-28T18:01:21.929Z,1.10
2023-01-28T18:03:48.504Z,1.02
2023-01-28T18:06:15.090Z,1.09
2023-01-28T18:08:41.444Z,1.06
2023-01-28T18:11:11.362Z,1.16
2023-01-28T18:13:39.330Z,1.16
2023-01-28T18:16:08.406Z,1.15
2023-01-28T18:18:34.979Z,1.13
2023-01-28T18:21:05.148Z,1.19
2023-01-28T18:23:32.500Z,1.20
2023-01-28T18:26:01.471Z,1.24
2023-01-28T18:28:28.448Z,1.18
2023-01-28T18:30:55.101Z,1.19
2023-01-28T18:33:23.208Z,1.18
2023-01-28T18:35:49.677Z,1.10
2023-01-28T18:38:16.633Z,1.12
2023-01-28T18:40:46.464Z,1.17
2023-01-28T18:43:13.484Z,1.05
2023-01-28T18:45:41.552Z,1.19
2023-01-28T18:48:08.335Z,1.13
2023-01-28T18:50:34.728Z,1.43
2023-01-28T18:53:01.829Z,1.67
2023-01-28T18:55:28.444Z,1.38
2023-01-28T18:57:56.105Z,1.27
2023-01-28T19:00:22.683Z,1.28
2023-01-28T19:02:49.568Z,1.28
2023-01-28T19:05:16.521Z,1.18
2023-01-28T19:07:43.249Z,1.27
2023-01-28T19:10:10.188Z,1.14
2023-01-28T19:12:36.674Z,1.09
2023-01-28T19:15:03.186Z,1.12
2023-01-28T19:17:29.502Z,1.17
2023-01-28T19:19:55.951Z,1.08
2023-01-28T19:22:22.261Z,1.06
2023-01-28T19:24:48.611Z,1.06
2023-01-28T19:27:15.023Z,1.12
2023-01-28T19:29:41.393Z,1.14
2023-01-28T19:32:07.799Z,1.08
2023-01-28T19:34:34.163Z,1.22
2023-01-28T19:37:00.655Z,1.23
2023-01-28T19:39:27.039Z,1.23
2023-01-28T19:41:53.488Z,1.17
2023-01-28T19:44:19.850Z,1.09
2023-01-28T19:46:46.273Z,1.05
2023-01-28T19:49:12.889Z,0.94
2023-01-28T19:51:39.264Z,1.01
2023-01-28T19:54:05.704Z,1.03
2023-01-28T19:56:32.022Z,0.96
2023-01-28T19:58:58.379Z,0.88
2023-01-28T20:01:29.914Z,1.01
2023-01-28T20:03:58.737Z,1.02
2023-01-28T20:06:26.499Z,1.17
2023-01-28T20:08:54.655Z,1.10
2023-01-28T20:11:22.259Z,1.00
2023-01-28T20:13:50.595Z,1.06
2023-01-28T20:16:20.068Z,0.94
2023-01-28T20:18:51.861Z,0.95
2023-01-28T20:21:19.423Z,0.86
2023-01-28T20:23:50.875Z,0.88
2023-01-28T20:26:18.421Z,0.89
2023-01-28T20:28:44.831Z,0.82
2023-01-28T20:31:11.942Z,0.80
2023-01-28T20:33:39.158Z,0.87
2023-01-28T20:36:13.345Z,0.85
2023-01-28T20:38:42.777Z,0.77
2023-01-28T20:41:15.332Z,0.80
2023-01-28T20:43:43.768Z,0.87
2023-01-28T20:46:22.092Z,0.87
2023-01-28T20:48:48.696Z,0.73
2023-01-28T20:51:18.238Z,0.66
2023-01-28T20:53:45.343Z,0.61
2023-01-28T20:56:13.658Z,0.75
2023-01-28T20:58:41.104Z,0.71
2023-01-28T21:01:08.045Z,0.86
2023-01-28T21:03:34.391Z,0.83
2023-01-28T21:06:01.210Z,0.59
2023-01-28T21:08:27.902Z,0.59
2023-01-28T21:10:54.291Z,0.59
2023-01-28T21:13:20.682Z,0.66
2023-01-28T21:15:52.327Z,0.58
2023-01-28T21:18:19.034Z,0.52
2023-01-28T21:20:45.450Z,0.61
2023-01-28T21:23:12.187Z,0.56
2023-01-28T21:25:38.587Z,0.67
2023-01-28T21:28:04.895Z,0.73
2023-01-28T21:30:31.344Z,0.57
2023-01-28T21:32:58.019Z,0.54
2023-01-28T21:35:24.698Z,0.60
2023-01-28T21:37:51.216Z,0.49
2023-01-28T21:40:18.465Z,0.49
2023-01-28T21:42:45.240Z,0.48
2023-01-28T21:45:11.764Z,0.53
2023-01-28T21:47:38.225Z,0.43
2023-01-28T21:50:05.039Z,0.51
2023-01-28T21:52:31.676Z,0.52
2023-01-28T21:54:58.227Z,0.52
2023-01-28T21:57:24.962Z,0.58
2023-01-28T21:59:51.284Z,0.67
2023-01-28T22:02:17.724Z,0.56
2023-01-28T22:04:45.552Z,0.65
2023-01-28T22:07:13.901Z,0.50
2023-01-28T22:09:40.859Z,0.44
2023-01-28T22:12:07.740Z,0.42
2023-01-28T22:14:35.496Z,0.43
2023-01-28T22:17:02.724Z,0.30
2023-01-28T22:19:29.227Z,0.04
2023-01-28T22:21:56.021Z,0.23
2023-01-28T22:24:24.292Z,0.35
2023-01-28T22:26:52.146Z,0.27
2023-01-28T22:29:20.515Z,0.30
2023-01-28T22:31:48.583Z,0.37
2023-01-28T22:34:15.630Z,0.46
2023-01-28T22:36:42.589Z,0.43
2023-01-28T22:39:13.408Z,0.56
2023-01-28T22:41:40.404Z,0.53
2023-01-28T22:44:07.391Z,0.53
2023-01-28T22:46:34.823Z,0.55
2023-01-28T22:49:01.713Z,0.40
2023-01-28T22:51:31.182Z,0.46
2023-01-28T22:53:57.907Z,0.39
2023-01-28T22:56:27.111Z,0.46
2023-01-28T22:58:58.688Z,0.47
2023-01-28T23:01:25.324Z,0.44
2023-01-28T23:03:52.642Z,0.56
2023-01-28T23:06:21.453Z,0.53
2023-01-28T23:08:48.506Z,0.50
2023-01-28T23:11:16.182Z,0.50
2023-01-28T23:13:44.155Z,0.52
2023-01-28T23:16:10.472Z,0.51
2023-01-28T23:18:37.689Z,0.32
2023-01-28T23:21:04.385Z,0.39
2023-01-28T23:23:30.786Z,0.28
2023-01-28T23:25:57.191Z,0.31
2023-01-28T23:28:23.537Z,0.19
2023-01-28T23:30:49.961Z,0.25
2023-01-28T23:33:16.405Z,0.21
2023-01-28T23:35:42.743Z,0.04
2023-01-28T23:38:09.191Z,-0.04
2023-01-28T23:40:35.649Z,-0.24
2023-01-28T23:43:01.969Z,-0.25
2023-01-28T23:45:28.947Z,-0.24
2023-01-28T23:47:55.329Z,-0.36
2023-01-28T23:50:21.889Z,-0.42
2023-01-28T23:52:49.003Z,-0.50
2023-01-28T23:55:15.588Z,-0.57
2023-01-28T23:57:42.192Z,-0.63
